createdAt,value
2022-08-09T00:00:25.546Z,26.75
2022-08-09T00:01:25.588Z,26.69
2022-08-09T00:02:25.842Z,26.48
2022-08-09T00:04:05.590Z,26.69
2022-08-09T00:04:34.724Z,26.64
2022-08-09T00:06:18.957Z,26.75
2022-08-09T00:06:27.570Z,26.05
2022-08-09T00:07:25.435Z,26.26
2022-08-09T00:08:32.886Z,26.59
2022-08-09T00:09:25.434Z,26.64
2022-08-09T00:10:25.397Z,26.53
2022-08-09T00:12:02.597Z,26.64
2022-08-09T00:12:25.407Z,26.48
2022-08-09T00:13:25.411Z,26.59
2022-08-09T00:14:36.431Z,26.64
2022-08-09T00:15:26.475Z,26.16
2022-08-09T00:16:25.853Z,26.69
2022-08-09T00:18:05.710Z,26.53
2022-08-09T00:18:25.314Z,26.64
2022-08-09T00:19:25.281Z,26.59
2022-08-09T00:20:25.313Z,26.48
2022-08-09T00:21:25.273Z,26.43
2022-08-09T00:22:25.255Z,26.59
2022-08-09T00:23:55.082Z,26.37
2022-08-09T00:24:27.557Z,26.64
2022-08-09T00:25:32.085Z,26.59
2022-08-09T00:26:29.951Z,26.69
2022-08-09T00:27:25.198Z,26.59
2022-08-09T00:28:26.416Z,26.43
2022-08-09T00:30:16.546Z,26.59
2022-08-09T00:30:30.413Z,26.64
2022-08-09T00:31:55.862Z,26.53
2022-08-09T00:32:26.976Z,26.80
2022-08-09T00:33:32.742Z,26.64
2022-08-09T00:34:25.150Z,26.48
2022-08-09T00:35:25.081Z,26.10
2022-08-09T00:36:29.642Z,26.48
2022-08-09T00:37:25.076Z,26.69
2022-08-09T00:38:25.076Z,26.48
2022-08-09T00:40:12.231Z,26.69
2022-08-09T00:40:30.122Z,26.48
2022-08-09T00:44:11.235Z,26.16
2022-08-09T00:44:27.261Z,26.48
2022-08-09T00:44:33.200Z,26.48
2022-08-09T00:45:34.691Z,26.53
2022-08-09T00:46:56.641Z,26.80
2022-08-09T00:47:35.858Z,26.75
2022-08-09T00:48:32.895Z,26.48
2022-08-09T00:49:32.940Z,26.48
2022-08-09T00:50:32.893Z,26.64
2022-08-09T00:51:33.884Z,26.80
2022-08-09T00:52:33.089Z,26.10
2022-08-09T00:53:32.836Z,26.59
2022-08-09T00:54:35.129Z,26.69
2022-08-09T00:56:05.369Z,26.05
2022-08-09T00:56:32.816Z,26.53
2022-08-09T00:57:34.481Z,26.48
2022-08-09T00:58:32.847Z,26.59
2022-08-09T00:59:41.638Z,26.59
2022-08-09T01:00:32.767Z,26.59
2022-08-09T01:01:32.708Z,26.69
2022-08-09T01:02:32.939Z,26.59
2022-08-09T01:03:32.830Z,26.59
2022-08-09T01:04:32.697Z,26.80
2022-08-09T01:05:53.944Z,26.64
2022-08-09T01:06:53.132Z,26.75
2022-08-09T01:07:37.995Z,26.48
2022-08-09T01:08:32.650Z,26.48
2022-08-09T01:09:35.929Z,26.64
2022-08-09T01:10:32.618Z,26.53
2022-08-09T01:11:32.613Z,26.48
2022-08-09T01:12:32.848Z,26.69
2022-08-09T01:13:41.764Z,26.64
2022-08-09T01:14:32.578Z,26.75
2022-08-09T01:15:32.588Z,26.37
2022-08-09T01:16:32.590Z,26.69
2022-08-09T01:17:34.138Z,26.75
2022-08-09T01:18:32.497Z,26.59
2022-08-09T01:19:39.944Z,26.48
2022-08-09T01:20:32.480Z,26.53
2022-08-09T01:21:41.321Z,26.53
2022-08-09T01:22:32.898Z,26.86
2022-08-09T01:24:02.106Z,26.32
2022-08-09T01:24:32.442Z,26.80
2022-08-09T01:25:32.429Z,26.59
2022-08-09T01:26:32.423Z,26.80
2022-08-09T01:27:32.397Z,26.64
2022-08-09T01:28:32.389Z,26.53
2022-08-09T01:29:55.074Z,26.59
2022-08-09T01:30:51.338Z,26.53
2022-08-09T01:32:30.118Z,26.80
2022-08-09T01:32:38.295Z,26.53
2022-08-09T01:33:32.350Z,26.64
2022-08-09T01:34:32.322Z,26.59
2022-08-09T01:35:37.593Z,26.26
2022-08-09T01:36:32.292Z,26.64
2022-08-09T01:38:06.316Z,26.69
2022-08-09T01:38:32.268Z,26.69
2022-08-09T01:39:32.298Z,26.53
2022-08-09T01:40:32.222Z,26.69
2022-08-09T01:41:32.194Z,26.53
2022-08-09T01:42:32.450Z,26.75
2022-08-09T01:43:32.190Z,26.75
2022-08-09T01:44:32.215Z,26.75
2022-08-09T01:45:32.148Z,26.48
2022-08-09T01:46:32.394Z,26.69
2022-08-09T01:47:32.128Z,26.64
2022-08-09T01:48:32.106Z,26.69
2022-08-09T01:49:39.239Z,26.69
2022-08-09T01:50:37.203Z,26.59
2022-08-09T01:51:32.942Z,26.69
2022-08-09T01:52:32.385Z,26.43
2022-08-09T01:53:41.375Z,26.59
2022-08-09T01:54:32.970Z,26.69
2022-08-09T01:55:32.010Z,26.48
2022-08-09T01:56:32.003Z,26.69
2022-08-09T01:57:32.024Z,26.69
2022-08-09T01:58:31.987Z,26.00
2022-08-09T01:59:32.372Z,26.53
2022-08-09T02:00:35.897Z,26.64
2022-08-09T02:01:58.390Z,26.59
2022-08-09T02:02:32.886Z,26.59
2022-08-09T02:03:31.938Z,26.10
2022-08-09T02:04:32.097Z,26.53
2022-08-09T02:05:38.105Z,26.64
2022-08-09T02:06:32.340Z,26.69
2022-08-09T02:08:38.807Z,26.64
2022-08-09T02:08:58.636Z,26.75
2022-08-09T02:09:42.674Z,26.53
2022-08-09T02:10:31.826Z,26.64
2022-08-09T02:11:43.512Z,26.59
2022-08-09T02:12:31.934Z,26.48
2022-08-09T02:13:37.582Z,26.43
2022-08-09T02:14:31.799Z,26.69
2022-08-09T02:15:48.832Z,26.59
2022-08-09T02:16:35.291Z,26.64
2022-08-09T02:17:59.787Z,26.75
2022-08-09T02:18:31.730Z,26.16
2022-08-09T02:19:38.638Z,26.10
2022-08-09T02:20:32.889Z,26.64
2022-08-09T02:21:31.681Z,26.59
2022-08-09T02:22:34.976Z,26.48
2022-08-09T02:23:32.057Z,26.21
2022-08-09T02:24:31.639Z,26.48
2022-08-09T02:25:31.610Z,26.32
2022-08-09T02:26:31.614Z,26.48
2022-08-09T02:27:57.538Z,26.53
2022-08-09T02:28:31.571Z,26.80
2022-08-09T02:29:32.721Z,26.69
2022-08-09T02:30:31.564Z,26.75
2022-08-09T02:31:35.577Z,26.53
2022-08-09T02:32:31.678Z,26.69
2022-08-09T02:33:38.344Z,26.48
2022-08-09T02:34:40.631Z,26.69
2022-08-09T02:36:03.531Z,26.69
2022-08-09T02:36:31.514Z,26.43
2022-08-09T02:37:33.022Z,26.53
2022-08-09T02:38:31.459Z,26.05
2022-08-09T02:39:39.678Z,26.53
2022-08-09T02:40:31.473Z,26.64
2022-08-09T02:41:31.406Z,26.69
2022-08-09T02:42:31.773Z,26.75
2022-08-09T02:43:31.402Z,26.48
2022-08-09T02:44:31.398Z,26.75
2022-08-09T02:45:31.356Z,26.69
2022-08-09T02:46:31.339Z,26.59
2022-08-09T02:47:33.939Z,26.53
2022-08-09T02:48:31.623Z,26.75
2022-08-09T02:49:40.928Z,26.16
2022-08-09T02:50:31.275Z,26.69
2022-08-09T02:51:37.071Z,26.75
2022-08-09T02:52:31.480Z,26.10
2022-08-09T02:53:31.278Z,26.64
2022-08-09T02:54:31.631Z,26.75
2022-08-09T02:55:46.372Z,26.69
2022-08-09T02:56:31.180Z,26.69
2022-08-09T02:57:31.183Z,26.43
2022-08-09T02:58:35.629Z,26.10
2022-08-09T02:59:36.567Z,26.59
2022-08-09T03:00:31.157Z,26.59
2022-08-09T03:01:43.331Z,26.69
2022-08-09T03:02:31.447Z,26.48
2022-08-09T03:04:13.205Z,26.59
2022-08-09T03:04:31.104Z,26.69
2022-08-09T03:05:34.704Z,26.53
2022-08-09T03:06:31.074Z,26.75
2022-08-09T03:07:31.054Z,26.48
2022-08-09T03:08:31.031Z,26.53
2022-08-09T03:09:33.743Z,26.64
2022-08-09T03:10:31.016Z,26.00
2022-08-09T03:12:10.506Z,26.69
2022-08-09T03:12:31.185Z,26.53
2022-08-09T03:13:43.941Z,26.75
2022-08-09T03:14:30.948Z,26.48
2022-08-09T03:15:40.440Z,26.48
2022-08-09T03:16:30.923Z,26.59
2022-08-09T03:17:30.913Z,26.48
2022-08-09T03:18:31.191Z,26.48
2022-08-09T03:19:59.204Z,26.43
2022-08-09T03:20:30.874Z,26.53
2022-08-09T03:21:36.613Z,26.69
2022-08-09T03:22:31.084Z,26.53
2022-08-09T03:23:30.813Z,26.64
2022-08-09T03:24:31.488Z,26.00
2022-08-09T03:25:58.597Z,26.48
2022-08-09T03:26:32.067Z,26.32
2022-08-09T03:27:30.777Z,26.21
2022-08-09T03:28:30.753Z,26.59
2022-08-09T03:29:30.741Z,26.53
2022-08-09T03:30:34.072Z,26.69
2022-08-09T03:31:30.732Z,26.53
2022-08-09T03:32:31.069Z,26.53
2022-08-09T03:33:54.046Z,26.00
2022-08-09T03:34:30.685Z,26.64
2022-08-09T03:35:44.340Z,26.48
2022-08-09T03:36:30.661Z,26.48
2022-08-09T03:37:57.101Z,26.69
2022-08-09T03:38:30.714Z,26.16
2022-08-09T03:39:37.822Z,26.64
2022-08-09T03:40:30.887Z,26.69
2022-08-09T03:41:48.391Z,26.64
2022-08-09T03:42:30.901Z,26.69
2022-08-09T03:43:31.694Z,26.80
2022-08-09T03:44:32.057Z,26.43
2022-08-09T03:46:03.859Z,26.69
2022-08-09T03:46:30.542Z,26.21
2022-08-09T03:47:30.489Z,26.80
2022-08-09T03:48:30.992Z,26.80
2022-08-09T03:49:35.637Z,26.53
2022-08-09T03:50:32.028Z,26.69
2022-08-09T03:51:43.866Z,26.69
2022-08-09T03:52:30.631Z,26.53
2022-08-09T03:53:32.174Z,26.59
2022-08-09T03:54:31.325Z,26.48
2022-08-09T03:55:36.132Z,26.16
2022-08-09T03:56:30.388Z,26.48
2022-08-09T03:57:30.377Z,26.59
2022-08-09T03:58:30.369Z,26.48
2022-08-09T03:59:43.227Z,26.48
2022-08-09T04:00:30.357Z,26.43
2022-08-09T04:01:30.306Z,26.53
2022-08-09T04:02:30.726Z,26.16
2022-08-09T04:03:46.101Z,26.16
2022-08-09T04:04:36.277Z,26.53
2022-08-09T04:05:32.292Z,26.10
2022-08-09T04:06:30.251Z,26.59
2022-08-09T04:07:33.790Z,26.64
2022-08-09T04:08:30.244Z,26.53
2022-08-09T04:09:48.170Z,26.53
2022-08-09T04:10:30.595Z,26.59
2022-08-09T04:11:30.180Z,26.05
2022-08-09T04:12:31.678Z,26.75
2022-08-09T04:14:36.666Z,26.75
2022-08-09T04:15:00.646Z,26.59
2022-08-09T04:15:52.400Z,26.69
2022-08-09T04:16:30.139Z,26.64
2022-08-09T04:17:30.117Z,26.69
2022-08-09T04:18:30.096Z,26.53
2022-08-09T04:19:50.969Z,26.05
2022-08-09T04:20:30.073Z,26.64
2022-08-09T04:21:30.066Z,26.59
2022-08-09T04:22:30.293Z,26.53
2022-08-09T04:23:30.039Z,26.59
2022-08-09T04:24:30.031Z,26.48
2022-08-09T04:25:30.006Z,26.64
2022-08-09T04:26:35.059Z,26.48
2022-08-09T04:27:30.001Z,26.75
2022-08-09T04:28:32.943Z,26.69
2022-08-09T04:29:30.105Z,26.69
2022-08-09T04:30:29.947Z,26.48
2022-08-09T04:31:37.583Z,26.21
2022-08-09T04:32:34.114Z,26.69
2022-08-09T04:33:29.911Z,26.53
2022-08-09T04:34:31.694Z,26.53
2022-08-09T04:35:32.856Z,26.69
2022-08-09T04:36:29.856Z,26.10
2022-08-09T04:37:45.226Z,26.64
2022-08-09T04:38:29.856Z,26.75
2022-08-09T04:39:30.884Z,26.43
2022-08-09T04:40:36.131Z,26.48
2022-08-09T04:41:33.026Z,26.69
2022-08-09T04:42:30.106Z,26.21
2022-08-09T04:43:29.777Z,26.64
2022-08-09T04:44:29.789Z,26.26
2022-08-09T04:45:30.601Z,26.69
2022-08-09T04:46:36.450Z,26.48
2022-08-09T04:47:33.179Z,26.69
2022-08-09T04:48:33.502Z,26.75
2022-08-09T04:49:40.430Z,26.59
2022-08-09T04:50:31.890Z,26.69
2022-08-09T04:51:29.666Z,26.59
2022-08-09T04:52:29.804Z,26.69
2022-08-09T04:53:31.459Z,26.53
2022-08-09T04:54:29.613Z,26.32
2022-08-09T04:55:38.337Z,26.69
2022-08-09T04:56:29.617Z,26.64
2022-08-09T04:57:58.596Z,26.16
2022-08-09T04:58:31.685Z,26.32
2022-08-09T04:59:30.132Z,26.43
2022-08-09T05:00:31.788Z,26.69
2022-08-09T05:01:29.512Z,26.69
2022-08-09T05:02:29.508Z,26.59
2022-08-09T05:03:40.979Z,26.59
2022-08-09T05:04:30.650Z,26.00
2022-08-09T05:05:31.851Z,26.80
2022-08-09T05:06:32.640Z,26.48
2022-08-09T05:07:32.014Z,26.26
2022-08-09T05:08:29.499Z,26.53
2022-08-09T05:09:42.021Z,26.69
2022-08-09T05:10:29.397Z,26.69
2022-08-09T05:11:32.170Z,26.48
2022-08-09T05:12:29.390Z,26.64
2022-08-09T05:13:29.362Z,26.64
2022-08-09T05:14:29.342Z,26.59
2022-08-09T05:15:39.405Z,26.37
2022-08-09T05:16:31.980Z,26.53
2022-08-09T05:18:38.719Z,26.37
2022-08-09T05:18:59.052Z,26.69
2022-08-09T05:19:38.406Z,26.37
2022-08-09T05:20:29.937Z,26.16
2022-08-09T05:21:29.964Z,26.53
2022-08-09T05:22:35.109Z,26.53
2022-08-09T05:24:01.622Z,26.53
2022-08-09T05:24:29.233Z,26.86
2022-08-09T05:25:32.412Z,26.59
2022-08-09T05:26:36.743Z,26.75
2022-08-09T05:27:31.019Z,26.75
2022-08-09T05:28:29.190Z,26.64
2022-08-09T05:29:31.514Z,26.53
2022-08-09T05:30:31.184Z,26.75
2022-08-09T05:31:44.427Z,26.53
2022-08-09T05:32:30.053Z,26.69
2022-08-09T05:33:33.174Z,26.37
2022-08-09T05:34:30.843Z,26.75
2022-08-09T05:35:29.071Z,26.64
2022-08-09T05:36:29.096Z,26.53
2022-08-09T05:37:29.040Z,26.48
2022-08-09T05:38:29.048Z,26.37
2022-08-09T05:39:35.855Z,26.64
2022-08-09T05:40:29.065Z,26.37
2022-08-09T05:41:29.063Z,26.59
2022-08-09T05:42:28.991Z,26.59
2022-08-09T05:43:31.974Z,26.80
2022-08-09T05:44:32.785Z,26.64
2022-08-09T05:45:52.545Z,26.32
2022-08-09T05:46:28.944Z,26.16
2022-08-09T05:47:30.407Z,26.86
2022-08-09T05:48:33.241Z,26.53
2022-08-09T05:50:29.980Z,26.26
2022-08-09T05:50:57.061Z,26.64
2022-08-09T05:51:42.828Z,26.69
2022-08-09T05:52:31.630Z,26.69
2022-08-09T05:53:33.398Z,26.75
2022-08-09T05:54:28.844Z,26.59
2022-08-09T05:55:28.850Z,26.59
2022-08-09T05:56:28.841Z,26.53
2022-08-09T05:57:50.890Z,26.48
2022-08-09T05:58:28.769Z,26.59
2022-08-09T05:59:28.775Z,26.80
2022-08-09T06:00:29.576Z,26.53
2022-08-09T06:01:33.631Z,26.86
2022-08-09T06:02:28.814Z,26.53
2022-08-09T06:03:34.879Z,26.80
2022-08-09T06:04:35.080Z,26.80
2022-08-09T06:05:31.255Z,26.59
2022-08-09T06:06:28.689Z,26.59
2022-08-09T06:07:28.667Z,26.80
2022-08-09T06:08:28.656Z,26.21
2022-08-09T06:09:54.160Z,26.80
2022-08-09T06:10:28.611Z,26.53
2022-08-09T06:11:40.858Z,26.80
2022-08-09T06:12:28.683Z,26.64
2022-08-09T06:13:33.792Z,26.21
2022-08-09T06:14:28.620Z,26.69
2022-08-09T06:15:28.552Z,26.59
2022-08-09T06:16:28.547Z,26.64
2022-08-09T06:17:40.284Z,26.75
2022-08-09T06:18:28.521Z,26.64
2022-08-09T06:19:28.503Z,26.80
2022-08-09T06:20:28.495Z,26.69
2022-08-09T06:21:28.492Z,26.69
2022-08-09T06:22:28.996Z,26.21
2022-08-09T06:23:57.461Z,26.53
2022-08-09T06:24:28.444Z,26.69
2022-08-09T06:25:28.432Z,26.16
2022-08-09T06:26:28.949Z,25.83
2022-08-09T06:27:42.329Z,26.80
2022-08-09T06:28:32.044Z,26.16
2022-08-09T06:29:28.375Z,26.59
2022-08-09T06:30:28.336Z,26.64
2022-08-09T06:31:31.175Z,26.75
2022-08-09T06:33:13.376Z,26.69
2022-08-09T06:33:52.987Z,26.80
2022-08-09T06:34:30.751Z,26.64
2022-08-09T06:35:56.482Z,26.86
2022-08-09T06:36:29.898Z,26.80
2022-08-09T06:37:28.860Z,26.64
2022-08-09T06:38:32.103Z,26.80
2022-08-09T06:39:48.232Z,26.69
2022-08-09T06:40:28.293Z,26.75
2022-08-09T06:41:58.856Z,26.86
2022-08-09T06:42:30.549Z,26.64
2022-08-09T06:43:34.063Z,26.64
2022-08-09T06:44:28.197Z,26.32
2022-08-09T06:46:07.785Z,26.75
2022-08-09T06:46:40.176Z,26.75
2022-08-09T06:47:30.082Z,26.64
2022-08-09T06:48:30.938Z,26.59
2022-08-09T06:49:45.163Z,26.37
2022-08-09T06:50:28.162Z,26.59
2022-08-09T06:51:28.320Z,26.59
2022-08-09T06:52:28.048Z,26.48
2022-08-09T06:53:33.395Z,26.75
2022-08-09T06:54:28.052Z,26.75
2022-08-09T06:55:28.028Z,26.86
2022-08-09T06:56:30.821Z,26.69
2022-08-09T06:58:01.640Z,26.86
2022-08-09T06:58:40.625Z,26.86
2022-08-09T07:00:59.845Z,26.69
2022-08-09T07:01:05.495Z,26.69
2022-08-09T07:02:05.552Z,26.53
2022-08-09T07:03:06.186Z,26.69
2022-08-09T07:04:05.431Z,26.80
2022-08-09T07:05:05.421Z,26.69
2022-08-09T07:06:05.597Z,26.80
2022-08-09T07:07:05.397Z,26.69
2022-08-09T07:08:05.379Z,26.80
2022-08-09T07:09:05.385Z,26.80
2022-08-09T07:10:14.246Z,26.69
2022-08-09T07:11:06.540Z,26.69
2022-08-09T07:12:05.334Z,26.80
2022-08-09T07:13:27.674Z,26.69
2022-08-09T07:14:06.347Z,26.59
2022-08-09T07:16:36.695Z,26.53
2022-08-09T07:16:48.155Z,26.75
2022-08-09T07:17:05.261Z,26.64
2022-08-09T07:18:05.235Z,26.69
2022-08-09T07:19:05.280Z,26.91
2022-08-09T07:20:05.193Z,26.48
2022-08-09T07:21:07.662Z,26.75
2022-08-09T07:22:05.202Z,26.53
2022-08-09T07:23:18.248Z,26.64
2022-08-09T07:24:05.186Z,26.91
2022-08-09T07:25:09.810Z,26.64
2022-08-09T07:26:05.152Z,26.80
2022-08-09T07:27:10.893Z,26.80
2022-08-09T07:28:05.120Z,26.86
2022-08-09T07:29:13.116Z,26.26
2022-08-09T07:30:05.503Z,26.86
2022-08-09T07:31:05.104Z,26.91
2022-08-09T07:32:05.052Z,26.75
2022-08-09T07:33:10.281Z,26.80
2022-08-09T07:34:05.166Z,26.75
2022-08-09T07:35:10.062Z,26.59
2022-08-09T07:36:05.018Z,26.59
2022-08-09T07:37:04.987Z,26.80
2022-08-09T07:38:05.017Z,26.86
2022-08-09T07:39:05.038Z,26.69
2022-08-09T07:40:05.176Z,26.69
2022-08-09T07:41:13.157Z,26.80
2022-08-09T07:42:05.110Z,26.91
2022-08-09T07:43:14.725Z,26.53
2022-08-09T07:44:04.922Z,26.64
2022-08-09T07:45:06.488Z,26.69
2022-08-09T07:46:04.858Z,26.69
2022-08-09T07:47:04.893Z,26.64
2022-08-09T07:48:05.236Z,26.26
2022-08-09T07:49:04.813Z,26.32
2022-08-09T07:50:08.525Z,26.32
2022-08-09T07:52:02.445Z,26.59
2022-08-09T07:52:17.718Z,26.80
2022-08-09T07:53:05.235Z,26.53
2022-08-09T07:54:08.468Z,26.75
2022-08-09T07:55:09.732Z,26.75
2022-08-09T07:56:06.666Z,26.59
2022-08-09T07:57:04.748Z,26.80
2022-08-09T07:58:04.726Z,26.53
2022-08-09T07:59:10.505Z,26.80
2022-08-09T08:00:04.685Z,26.91
2022-08-09T08:01:06.666Z,26.80
2022-08-09T08:02:04.905Z,26.91
2022-08-09T08:03:08.033Z,26.64
2022-08-09T08:04:04.641Z,26.75
2022-08-09T08:05:04.675Z,26.69
2022-08-09T08:06:04.621Z,26.91
2022-08-09T08:07:27.211Z,26.96
2022-08-09T08:09:07.729Z,26.69
2022-08-09T08:09:51.796Z,26.80
2022-08-09T08:10:15.425Z,26.91
2022-08-09T08:12:25.010Z,26.86
2022-08-09T08:12:32.819Z,26.75
2022-08-09T08:13:15.352Z,26.43
2022-08-09T08:14:15.335Z,26.80
2022-08-09T08:15:16.877Z,26.43
2022-08-09T08:16:29.754Z,26.86
2022-08-09T08:17:35.243Z,26.86
2022-08-09T08:18:16.382Z,26.91
2022-08-09T08:19:15.274Z,26.75
2022-08-09T08:20:15.287Z,26.91
2022-08-09T08:21:15.248Z,26.80
2022-08-09T08:22:15.228Z,26.91
2022-08-09T08:23:16.610Z,26.80
2022-08-09T08:24:16.704Z,26.80
2022-08-09T08:25:15.552Z,26.91
2022-08-09T08:26:15.184Z,26.96
2022-08-09T08:27:16.856Z,26.96
2022-08-09T08:28:15.525Z,27.07
2022-08-09T08:29:15.149Z,27.02
2022-08-09T08:30:15.176Z,27.07
2022-08-09T08:31:15.452Z,27.02
2022-08-09T08:32:24.538Z,27.07
2022-08-09T08:33:23.233Z,27.12
2022-08-09T08:34:15.082Z,27.12
2022-08-09T08:35:18.147Z,27.07
2022-08-09T08:36:28.380Z,27.02
2022-08-09T08:37:17.660Z,27.02
2022-08-09T08:38:15.039Z,27.12
2022-08-09T08:39:15.086Z,27.02
2022-08-09T08:40:15.014Z,27.12
2022-08-09T08:41:15.001Z,27.12
2022-08-09T08:42:15.801Z,27.07
2022-08-09T08:43:14.987Z,27.18
2022-08-09T08:44:14.973Z,27.07
2022-08-09T08:45:14.952Z,27.12
2022-08-09T08:46:32.389Z,27.12
2022-08-09T08:47:15.127Z,27.12
2022-08-09T08:48:16.834Z,27.18
2022-08-09T08:49:19.132Z,27.23
2022-08-09T08:50:15.532Z,27.18
2022-08-09T08:51:14.898Z,27.23
2022-08-09T08:52:41.479Z,27.23
2022-08-09T08:53:21.661Z,27.23
2022-08-09T08:54:20.192Z,27.23
2022-08-09T08:55:15.377Z,27.23
2022-08-09T08:56:28.226Z,27.23
2022-08-09T08:57:14.809Z,27.23
2022-08-09T08:58:14.804Z,27.23
2022-08-09T08:59:19.341Z,27.29
2022-08-09T09:00:27.232Z,27.29
2022-08-09T09:01:19.673Z,27.29
2022-08-09T09:02:14.808Z,27.29
2022-08-09T09:03:22.806Z,27.23
2022-08-09T09:04:14.808Z,27.23
2022-08-09T09:05:14.721Z,27.18
2022-08-09T09:06:14.708Z,27.23
2022-08-09T09:07:14.678Z,27.23
2022-08-09T09:08:29.779Z,27.18
2022-08-09T09:09:21.006Z,27.23
2022-08-09T09:10:14.661Z,27.29
2022-08-09T09:11:17.617Z,27.29
2022-08-09T09:12:16.963Z,27.29
2022-08-09T09:13:15.106Z,27.18
2022-08-09T09:14:15.817Z,27.23
2022-08-09T09:15:28.356Z,27.23
2022-08-09T09:16:14.590Z,27.23
2022-08-09T09:17:16.369Z,27.23
2022-08-09T09:18:14.603Z,27.23
2022-08-09T09:19:37.093Z,27.18
2022-08-09T09:20:15.436Z,27.18
2022-08-09T09:21:14.518Z,27.23
2022-08-09T09:22:15.877Z,27.18
2022-08-09T09:23:14.523Z,27.18
2022-08-09T09:24:21.872Z,27.23
2022-08-09T09:26:03.656Z,27.29
2022-08-09T09:26:17.110Z,27.23
2022-08-09T09:28:04.421Z,27.29
2022-08-09T09:28:14.509Z,27.23
2022-08-09T09:29:16.872Z,27.23
2022-08-09T09:31:17.277Z,27.23
2022-08-09T09:32:15.838Z,27.29
2022-08-09T09:33:16.590Z,27.23
2022-08-09T09:34:15.154Z,27.29
2022-08-09T09:35:15.783Z,27.23
2022-08-09T09:36:20.412Z,27.23
2022-08-09T09:37:14.352Z,27.23
2022-08-09T09:38:18.460Z,27.29
2022-08-09T09:39:14.497Z,27.23
2022-08-09T09:40:14.470Z,27.29
2022-08-09T09:41:14.309Z,27.23
2022-08-09T09:42:14.288Z,27.23
2022-08-09T09:43:14.285Z,27.29
2022-08-09T09:44:25.173Z,27.23
2022-08-09T09:45:25.799Z,27.23
2022-08-09T09:47:14.267Z,27.29
2022-08-09T09:48:14.472Z,27.18
2022-08-09T09:49:14.229Z,27.29
2022-08-09T09:50:17.598Z,27.23
2022-08-09T09:51:26.179Z,27.23
2022-08-09T09:52:35.640Z,27.29
2022-08-09T09:53:14.214Z,27.23
2022-08-09T09:54:20.482Z,27.29
2022-08-09T09:55:24.425Z,27.29
2022-08-09T09:56:19.784Z,27.29
2022-08-09T09:58:02.605Z,27.34
2022-08-09T09:58:17.026Z,27.29
2022-08-09T09:59:14.122Z,27.34
2022-08-09T10:00:14.102Z,27.29
2022-08-09T10:01:31.152Z,27.29
2022-08-09T10:02:14.049Z,27.34
2022-08-09T10:03:14.242Z,27.18
2022-08-09T10:04:15.982Z,27.23
2022-08-09T10:05:14.042Z,27.29
2022-08-09T10:06:14.031Z,27.29
2022-08-09T10:07:14.011Z,27.29
2022-08-09T10:08:28.444Z,27.29
2022-08-09T10:09:23.402Z,27.29
2022-08-09T10:10:14.019Z,27.29
2022-08-09T10:11:58.927Z,27.29
2022-08-09T10:12:43.659Z,27.29
2022-08-09T10:13:13.934Z,27.29
2022-08-09T10:14:13.930Z,27.29
2022-08-09T10:15:17.451Z,27.29
2022-08-09T10:16:57.132Z,27.29
2022-08-09T10:17:51.098Z,27.23
2022-08-09T10:18:13.888Z,27.29
2022-08-09T10:19:13.873Z,27.29
2022-08-09T10:20:15.281Z,27.23
2022-08-09T10:21:13.839Z,27.23
2022-08-09T10:22:13.817Z,27.29
2022-08-09T10:23:13.840Z,27.29
2022-08-09T10:24:16.009Z,27.29
2022-08-09T10:25:14.655Z,27.29
2022-08-09T10:26:13.800Z,27.23
2022-08-09T10:27:18.201Z,27.29
2022-08-09T10:28:13.783Z,27.29
2022-08-09T10:29:37.144Z,27.23
2022-08-09T10:32:38.318Z,27.29
2022-08-09T10:34:04.294Z,27.29
2022-08-09T10:34:33.247Z,27.29
2022-08-09T10:35:13.708Z,27.23
2022-08-09T10:36:13.734Z,27.29
2022-08-09T10:37:13.931Z,27.29
2022-08-09T10:38:34.350Z,27.34
2022-08-09T10:39:16.188Z,27.29
2022-08-09T10:40:33.704Z,27.29
2022-08-09T10:41:13.654Z,27.29
2022-08-09T10:42:13.616Z,27.29
2022-08-09T10:43:13.599Z,27.34
2022-08-09T10:44:13.625Z,27.29
2022-08-09T10:45:16.579Z,27.34
2022-08-09T10:46:20.039Z,27.34
2022-08-09T10:48:12.783Z,27.34
2022-08-09T10:48:31.363Z,27.34
2022-08-09T10:49:13.531Z,27.34
2022-08-09T10:50:15.023Z,27.29
2022-08-09T10:51:13.705Z,27.34
2022-08-09T10:52:14.758Z,27.34
2022-08-09T10:53:13.511Z,27.34
2022-08-09T10:54:13.474Z,27.39
2022-08-09T10:55:13.504Z,27.39
2022-08-09T10:56:13.469Z,27.39
2022-08-09T10:57:13.452Z,27.39
2022-08-09T10:58:17.169Z,27.45
2022-08-09T10:59:13.427Z,27.39
2022-08-09T11:00:13.424Z,27.45
2022-08-09T11:03:13.339Z,27.45
2022-08-09T11:03:46.788Z,27.45
2022-08-09T11:04:02.128Z,27.45
2022-08-09T11:04:34.593Z,27.45
2022-08-09T11:05:34.564Z,27.39
2022-08-09T11:06:34.545Z,27.39
2022-08-09T11:07:57.038Z,27.34
2022-08-09T11:08:34.531Z,27.34
2022-08-09T11:09:36.688Z,27.39
2022-08-09T11:10:34.486Z,27.34
2022-08-09T11:11:34.497Z,27.39
2022-08-09T11:12:34.925Z,27.34
2022-08-09T11:13:54.234Z,27.29
2022-08-09T11:14:34.462Z,27.34
2022-08-09T11:15:38.504Z,27.23
2022-08-09T11:16:35.717Z,27.18
2022-08-09T11:17:34.421Z,27.18
2022-08-09T11:18:34.404Z,27.12
2022-08-09T11:20:11.229Z,26.96
2022-08-09T11:20:34.378Z,27.07
2022-08-09T11:21:34.362Z,27.07
2022-08-09T11:22:34.390Z,27.02
2022-08-09T11:23:34.352Z,27.07
2022-08-09T11:24:34.325Z,26.96
2022-08-09T11:25:44.976Z,27.02
2022-08-09T11:26:34.325Z,27.02
2022-08-09T11:28:04.333Z,26.96
2022-08-09T11:28:38.859Z,26.96
2022-08-09T11:30:04.512Z,27.02
2022-08-09T11:30:36.004Z,27.02
2022-08-09T11:31:36.510Z,27.18
2022-08-09T11:32:34.518Z,27.18
2022-08-09T11:33:34.226Z,27.23
2022-08-09T11:34:34.839Z,27.18
2022-08-09T11:35:35.320Z,27.29
2022-08-09T11:36:35.335Z,27.29
2022-08-09T11:37:40.900Z,27.34
2022-08-09T11:38:34.915Z,27.29
2022-08-09T11:39:38.748Z,27.34
2022-08-09T11:40:34.156Z,27.34
2022-08-09T11:41:37.542Z,27.34
2022-08-09T11:42:34.511Z,27.23
2022-08-09T11:43:34.115Z,27.29
2022-08-09T11:44:34.087Z,27.29
2022-08-09T11:45:42.197Z,27.18
2022-08-09T11:46:34.085Z,27.12
2022-08-09T11:47:34.053Z,27.18
2022-08-09T11:48:34.048Z,27.29
2022-08-09T11:49:42.955Z,27.29
2022-08-09T11:52:49.044Z,27.29
2022-08-09T11:54:01.398Z,27.29
2022-08-09T11:54:13.478Z,27.23
2022-08-09T11:54:28.692Z,27.23
2022-08-09T11:55:21.752Z,27.23
2022-08-09T11:56:19.647Z,27.12
2022-08-09T11:57:28.328Z,27.29
2022-08-09T11:58:19.551Z,27.23
2022-08-09T11:59:19.444Z,27.29
2022-08-09T12:00:24.288Z,27.29
2022-08-09T12:02:15.737Z,27.29
2022-08-09T12:02:37.260Z,27.29
2022-08-09T12:03:54.789Z,27.29
2022-08-09T12:04:20.841Z,27.29
2022-08-09T12:05:22.660Z,27.23
2022-08-09T12:06:26.453Z,27.18
2022-08-09T12:07:19.375Z,27.29
2022-08-09T12:08:19.837Z,27.18
2022-08-09T12:09:20.916Z,27.12
2022-08-09T12:10:38.304Z,27.12
2022-08-09T12:11:19.323Z,27.07
2022-08-09T12:12:20.599Z,27.18
2022-08-09T12:14:07.509Z,27.02
2022-08-09T12:14:28.794Z,27.07
2022-08-09T12:15:22.262Z,26.96
2022-08-09T12:16:30.979Z,27.07
2022-08-09T12:17:34.258Z,27.02
2022-08-09T12:18:29.901Z,27.02
2022-08-09T12:19:19.209Z,27.02
2022-08-09T12:20:21.534Z,27.12
2022-08-09T12:21:28.597Z,27.18
2022-08-09T12:22:19.181Z,27.18
2022-08-09T12:23:24.555Z,27.23
2022-08-09T12:24:19.156Z,27.23
2022-08-09T12:25:36.335Z,27.18
2022-08-09T12:26:19.875Z,27.12
2022-08-09T12:29:15.301Z,27.07
2022-08-09T12:29:52.434Z,27.12
2022-08-09T12:30:35.175Z,27.07
2022-08-09T12:30:45.024Z,27.07
2022-08-09T12:32:01.984Z,27.07
2022-08-09T12:32:45.014Z,27.02
2022-08-09T12:33:59.462Z,26.96
2022-08-09T12:34:44.963Z,27.02
2022-08-09T12:35:45.012Z,26.86
2022-08-09T12:36:44.934Z,27.23
2022-08-09T12:37:50.141Z,27.29
2022-08-09T12:38:44.961Z,27.12
2022-08-09T12:39:45.039Z,27.12
2022-08-09T12:40:44.935Z,27.29
2022-08-09T12:41:44.882Z,27.29
2022-08-09T12:42:44.882Z,27.29
2022-08-09T12:44:06.841Z,27.23
2022-08-09T12:44:46.224Z,27.18
2022-08-09T12:45:44.835Z,27.12
2022-08-09T12:46:49.262Z,27.07
2022-08-09T12:47:50.363Z,27.02
2022-08-09T12:48:44.788Z,27.18
2022-08-09T12:49:51.102Z,27.18
2022-08-09T12:50:44.798Z,27.23
2022-08-09T12:52:00.149Z,27.23
2022-08-09T12:53:08.459Z,27.18
2022-08-09T12:53:52.863Z,27.12
2022-08-09T12:54:44.738Z,27.12
2022-08-09T12:56:15.951Z,27.07
2022-08-09T12:56:48.494Z,27.02
2022-08-09T12:57:46.193Z,27.02
2022-08-09T12:58:45.917Z,27.07
2022-08-09T13:00:02.900Z,27.07